sensor_id;sensor_type;location;lat;lon;timestamp;pressure;altitude;pressure_sealevel;temperature;humidity
20156;BME280;10238;49.556;10.956;2023-11-21T00:02:44;97830.94;;;7.18;100.00
20156;BME280;10238;49.556;10.956;2023-11-21T00:05:33;97831.88;;;7.17;100.00
20156;BME280;10238;49.556;10.956;2023-11-21T00:08:21;97830.22;;;7.16;100.00
20156;BME280;10238;49.556;10.956;2023-11-21T00:11:10;97825.78;;;7.16;100.00
20156;BME280;10238;49.556;10.956;2023-11-21T00:13:58;97827.59;;;7.16;100.00
20156;BME280;10238;49.556;10.956;2023-11-21T00:16:45;97825.78;;;7.16;100.00
20156;BME280;10238;49.556;10.956;2023-11-21T00:19:33;97833.56;;;7.18;100.00
20156;BME280;10238;49.556;10.956;2023-11-21T00:22:21;97835.22;;;7.19;100.00
20156;BME280;10238;49.556;10.956;2023-11-21T00:25:09;97836.88;;;7.20;100.00
20156;BME280;10238;49.556;10.956;2023-11-21T00:27:58;97836.88;;;7.20;100.00
20156;BME280;10238;49.556;10.956;2023-11-21T00:30:47;97834.09;;;7.21;100.00
20156;BME280;10238;49.556;10.956;2023-11-21T00:33:35;97825.34;;;7.21;100.00
20156;BME280;10238;49.556;10.956;2023-11-21T00:36:22;97831.59;;;7.20;100.00
20156;BME280;10238;49.556;10.956;2023-11-21T00:39:12;97831.72;;;7.18;100.00
20156;BME280;10238;49.556;10.956;2023-11-21T00:42:00;97824.94;;;7.16;100.00
20156;BME280;10238;49.556;10.956;2023-11-21T00:44:49;97826.59;;;7.17;100.00
20156;BME280;10238;49.556;10.956;2023-11-21T00:47:36;97820.50;;;7.16;100.00
20156;BME280;10238;49.556;10.956;2023-11-21T00:50:25;97823.28;;;7.15;100.00
20156;BME280;10238;49.556;10.956;2023-11-21T00:53:13;97834.66;;;7.15;100.00
20156;BME280;10238;49.556;10.956;2023-11-21T00:56:02;97827.44;;;7.17;100.00
20156;BME280;10238;49.556;10.956;2023-11-21T00:58:52;97834.53;;;7.17;100.00
20156;BME280;10238;49.556;10.956;2023-11-21T01:01:41;97840.81;;;7.16;100.00
20156;BME280;10238;49.556;10.956;2023-11-21T01:04:29;97838.00;;;7.17;100.00
20156;BME280;10238;49.556;10.956;2023-11-21T01:07:18;97832.72;;;7.17;100.00
20156;BME280;10238;49.556;10.956;2023-11-21T01:10:08;97836.34;;;7.16;100.00
20156;BME280;10238;49.556;10.956;2023-11-21T01:12:56;97832.72;;;7.17;100.00
20156;BME280;10238;49.556;10.956;2023-11-21T01:15:44;97838.16;;;7.16;100.00
20156;BME280;10238;49.556;10.956;2023-11-21T01:18:34;97837.47;;;7.14;100.00
20156;BME280;10238;49.556;10.956;2023-11-21T01:21:22;97833.84;;;7.15;100.00
20156;BME280;10238;49.556;10.956;2023-11-21T01:24:09;97837.16;;;7.17;100.00
20156;BME280;10238;49.556;10.956;2023-11-21T01:26:57;97833.56;;;7.18;100.00
20156;BME280;10238;49.556;10.956;2023-11-21T01:29:44;97830.78;;;7.19;100.00
20156;BME280;10238;49.556;10.956;2023-11-21T01:32:32;97838.84;;;7.18;100.00
20156;BME280;10238;49.556;10.956;2023-11-21T01:35:21;97829.25;;;7.17;100.00
20156;BME280;10238;49.556;10.956;2023-11-21T01:38:09;97836.06;;;7.19;100.00
20156;BME280;10238;49.556;10.956;2023-11-21T01:40:56;97831.59;;;7.20;100.00
20156;BME280;10238;49.556;10.956;2023-11-21T01:43:46;97829.94;;;7.19;100.00
20156;BME280;10238;49.556;10.956;2023-11-21T01:46:35;97827.44;;;7.17;100.00
20156;BME280;10238;49.556;10.956;2023-11-21T01:49:24;97827.72;;;7.14;100.00
20156;BME280;10238;49.556;10.956;2023-11-21T01:52:13;97816.31;;;7.14;100.00
20156;BME280;10238;49.556;10.956;2023-11-21T01:55:02;97822.44;;;7.14;100.00
20156;BME280;10238;49.556;10.956;2023-11-21T01:57:50;97815.66;;;7.12;100.00
20156;BME280;10238;49.556;10.956;2023-11-21T02:00:38;97819.41;;;7.09;100.00
20156;BME280;10238;49.556;10.956;2023-11-21T02:03:26;97825.00;;;7.06;100.00
20156;BME280;10238;49.556;10.956;2023-11-21T02:06:13;97811.09;;;7.04;100.00
20156;BME280;10238;49.556;10.956;2023-11-21T02:09:03;97822.78;;;7.02;100.00
20156;BME280;10238;49.556;10.956;2023-11-21T02:11:51;97816.66;;;7.01;100.00
20156;BME280;10238;49.556;10.956;2023-11-21T02:14:43;97820.28;;;7.00;100.00
20156;BME280;10238;49.556;10.956;2023-11-21T02:17:32;97819.44;;;7.00;100.00
20156;BME280;10238;49.556;10.956;2023-11-21T02:20:20;97815.81;;;7.01;100.00
20156;BME280;10238;49.556;10.956;2023-11-21T02:23:13;97815.81;;;7.01;100.00
20156;BME280;10238;49.556;10.956;2023-11-21T02:26:01;97815.81;;;7.01;100.00
20156;BME280;10238;49.556;10.956;2023-11-21T02:28:50;97818.31;;;7.02;100.00
20156;BME280;10238;49.556;10.956;2023-11-21T02:31:40;97811.38;;;7.01;100.00
20156;BME280;10238;49.556;10.956;2023-11-21T02:34:34;97812.22;;;7.02;100.00
20156;BME280;10238;49.556;10.956;2023-11-21T02:37:22;97820.28;;;7.00;100.00
20156;BME280;10238;49.556;10.956;2023-11-21T02:40:11;97812.50;;;6.99;100.00
20156;BME280;10238;49.556;10.956;2023-11-21T02:43:00;97805.25;;;7.01;100.00
20156;BME280;10238;49.556;10.956;2023-11-21T02:45:47;97803.44;;;7.01;100.00
20156;BME280;10238;49.556;10.956;2023-11-21T02:48:35;97810.53;;;7.01;100.00
20156;BME280;10238;49.556;10.956;2023-11-21T02:51:23;97804.44;;;7.00;100.00
20156;BME280;10238;49.556;10.956;2023-11-21T02:54:11;97801.66;;;7.02;100.00
20156;BME280;10238;49.556;10.956;2023-11-21T02:57:00;97806.94;;;7.02;100.00
20156;BME280;10238;49.556;10.956;2023-11-21T02:59:48;97806.94;;;7.02;100.00
20156;BME280;10238;49.556;10.956;2023-11-21T03:02:36;97804.97;;;7.04;100.00
20156;BME280;10238;49.556;10.956;2023-11-21T03:05:25;97804.97;;;7.04;100.00
20156;BME280;10238;49.556;10.956;2023-11-21T03:08:15;97802.47;;;7.02;100.00
20156;BME280;10238;49.556;10.956;2023-11-21T03:11:03;97803.31;;;7.03;100.00
20156;BME280;10238;49.556;10.956;2023-11-21T03:13:52;97805.94;;;7.03;100.00
20156;BME280;10238;49.556;10.956;2023-11-21T03:16:39;97806.94;;;7.02;100.00
20156;BME280;10238;49.556;10.956;2023-11-21T03:19:27;97801.66;;;7.02;100.00
20156;BME280;10238;49.556;10.956;2023-11-21T03:22:15;97802.31;;;7.04;100.00
20156;BME280;10238;49.556;10.956;2023-11-21T03:25:03;97802.47;;;7.02;100.00
20156;BME280;10238;49.556;10.956;2023-11-21T03:27:51;97807.22;;;6.99;100.00
20156;BME280;10238;49.556;10.956;2023-11-21T03:30:41;97805.53;;;6.98;100.00
20156;BME280;10238;49.556;10.956;2023-11-21T03:33:28;97801.09;;;6.98;100.00
20156;BME280;10238;49.556;10.956;2023-11-21T03:36:16;97812.50;;;6.99;100.00
20156;BME280;10238;49.556;10.956;2023-11-21T03:39:04;97807.22;;;6.99;100.00
20156;BME280;10238;49.556;10.956;2023-11-21T03:41:53;97808.88;;;7.00;100.00
20156;BME280;10238;49.556;10.956;2023-11-21T03:44:40;97805.25;;;7.01;100.00
20156;BME280;10238;49.556;10.956;2023-11-21T03:47:30;97809.59;;;7.02;100.00
20156;BME280;10238;49.556;10.956;2023-11-21T03:50:18;97808.03;;;6.99;100.00
20156;BME280;10238;49.556;10.956;2023-11-21T03:53:06;97812.50;;;6.99;100.00
20156;BME280;10238;49.556;10.956;2023-11-21T03:55:53;97807.22;;;6.99;100.00
20156;BME280;10238;49.556;10.956;2023-11-21T03:58:41;97809.03;;;6.98;100.00
20156;BME280;10238;49.556;10.956;2023-11-21T04:01:28;97818.47;;;7.01;100.00
20156;BME280;10238;49.556;10.956;2023-11-21T04:04:18;97819.44;;;7.00;100.00
20156;BME280;10238;49.556;10.956;2023-11-21T04:07:06;97815.81;;;7.01;100.00
20156;BME280;10238;49.556;10.956;2023-11-21T04:09:54;97828.22;;;7.00;100.00
20156;BME280;10238;49.556;10.956;2023-11-21T04:12:42;97818.47;;;7.01;100.00
20156;BME280;10238;49.556;10.956;2023-11-21T04:15:29;97819.31;;;7.01;100.00
20156;BME280;10238;49.556;10.956;2023-11-21T04:18:17;97823.75;;;7.01;100.00
20156;BME280;10238;49.556;10.956;2023-11-21T04:21:07;97814.88;;;7.02;100.00
20156;BME280;10238;49.556;10.956;2023-11-21T04:23:55;97817.50;;;7.02;100.00
20156;BME280;10238;49.556;10.956;2023-11-21T04:26:43;97824.59;;;7.01;100.00
20156;BME280;10238;49.556;10.956;2023-11-21T04:29:31;97821.09;;;7.01;100.00
20156;BME280;10238;49.556;10.956;2023-11-21T04:32:18;97822.78;;;7.02;100.00
20156;BME280;10238;49.556;10.956;2023-11-21T04:35:07;97828.88;;;7.02;100.00
20156;BME280;10238;49.556;10.956;2023-11-21T04:37:57;97827.25;;;7.01;100.00
20156;BME280;10238;49.556;10.956;2023-11-21T04:40:44;97822.78;;;7.02;100.00
20156;BME280;10238;49.556;10.956;2023-11-21T04:43:33;97828.06;;;7.02;100.00
20156;BME280;10238;49.556;10.956;2023-11-21T04:46:21;97823.47;;;7.04;100.00
20156;BME280;10238;49.556;10.956;2023-11-21T04:49:09;97822.78;;;7.02;100.00
20156;BME280;10238;49.556;10.956;2023-11-21T04:51:57;97828.06;;;7.02;100.00
20156;BME280;10238;49.556;10.956;2023-11-21T04:54:46;97828.75;;;7.04;100.00
20156;BME280;10238;49.556;10.956;2023-11-21T04:57:34;97836.66;;;7.04;100.00
20156;BME280;10238;49.556;10.956;2023-11-21T05:00:22;97841.97;;;7.04;100.00
20156;BME280;10238;49.556;10.956;2023-11-21T05:03:10;97836.00;;;7.02;100.00
20156;BME280;10238;49.556;10.956;2023-11-21T05:05:59;97835.31;;;7.00;100.00
20156;BME280;10238;49.556;10.956;2023-11-21T05:08:47;97838.94;;;6.99;100.00
20156;BME280;10238;49.556;10.956;2023-11-21T05:11:36;97835.44;;;6.98;100.00
20156;BME280;10238;49.556;10.956;2023-11-21T05:14:24;97832.66;;;7.00;100.00
20156;BME280;10238;49.556;10.956;2023-11-21T05:17:12;97838.78;;;7.00;100.00
20156;BME280;10238;49.556;10.956;2023-11-21T05:20:00;97844.06;;;7.00;100.00
20156;BME280;10238;49.556;10.956;2023-11-21T05:22:50;97838.94;;;6.99;100.00
20156;BME280;10238;49.556;10.956;2023-11-21T05:25:38;97846.88;;;6.99;100.00
20156;BME280;10238;49.556;10.956;2023-11-21T05:28:29;97853.09;;;6.98;100.00
20156;BME280;10238;49.556;10.956;2023-11-21T05:31:17;97858.38;;;6.98;100.00
20156;BME280;10238;49.556;10.956;2023-11-21T05:34:05;97851.44;;;6.97;100.00
20156;BME280;10238;49.556;10.956;2023-11-21T05:36:52;97864.66;;;6.97;100.00
20156;BME280;10238;49.556;10.956;2023-11-21T05:39:40;97855.06;;;6.96;100.00
20156;BME280;10238;49.556;10.956;2023-11-21T05:42:27;97857.56;;;6.97;100.00
20156;BME280;10238;49.556;10.956;2023-11-21T05:45:19;97863.66;;;6.98;100.00
20156;BME280;10238;49.556;10.956;2023-11-21T05:48:07;97867.84;;;7.00;100.00
20156;BME280;10238;49.556;10.956;2023-11-21T05:50:54;97861.88;;;6.98;100.00
20156;BME280;10238;49.556;10.956;2023-11-21T05:53:42;97866.16;;;6.99;100.00
20156;BME280;10238;49.556;10.956;2023-11-21T05:56:29;97868.94;;;6.98;100.00
20156;BME280;10238;49.556;10.956;2023-11-21T05:59:17;97872.28;;;7.00;100.00
20156;BME280;10238;49.556;10.956;2023-11-21T06:02:10;97875.09;;;6.98;100.00
20156;BME280;10238;49.556;10.956;2023-11-21T06:04:57;97877.88;;;6.97;100.00
20156;BME280;10238;49.556;10.956;2023-11-21T06:07:45;97877.03;;;6.96;100.00
20156;BME280;10238;49.556;10.956;2023-11-21T06:10:33;97878.72;;;6.97;100.00
20156;BME280;10238;49.556;10.956;2023-11-21T06:13:20;97879.53;;;6.98;100.00
20156;BME280;10238;49.556;10.956;2023-11-21T06:16:10;97878.00;;;6.95;100.00
20156;BME280;10238;49.556;10.956;2023-11-21T06:19:02;97890.53;;;6.93;100.00
20156;BME280;10238;49.556;10.956;2023-11-21T06:21:49;97892.34;;;6.93;100.00
20156;BME280;10238;49.556;10.956;2023-11-21T06:24:37;97889.72;;;6.93;100.00
20156;BME280;10238;49.556;10.956;2023-11-21T06:27:25;97889.56;;;6.94;100.00
20156;BME280;10238;49.556;10.956;2023-11-21T06:30:14;97889.56;;;6.94;100.00
20156;BME280;10238;49.556;10.956;2023-11-21T06:33:02;97909.56;;;6.97;100.00
20156;BME280;10238;49.556;10.956;2023-11-21T06:35:51;97907.78;;;6.97;100.00
20156;BME280;10238;49.556;10.956;2023-11-21T06:38:39;97907.63;;;6.99;100.00
20156;BME280;10238;49.556;10.956;2023-11-21T06:41:26;97908.44;;;6.99;100.00
20156;BME280;10238;49.556;10.956;2023-11-21T06:44:14;97911.09;;;6.99;100.00
20156;BME280;10238;49.556;10.956;2023-11-21T06:47:01;97909.28;;;7.00;100.00
20156;BME280;10238;49.556;10.956;2023-11-21T06:49:50;97915.94;;;7.04;100.00
20156;BME280;10238;49.556;10.956;2023-11-21T06:52:39;97929.84;;;7.06;100.00
20156;BME280;10238;49.556;10.956;2023-11-21T06:55:27;97929.84;;;7.06;100.00
20156;BME280;10238;49.556;10.956;2023-11-21T06:58:15;97934.00;;;7.08;100.00
20156;BME280;10238;49.556;10.956;2023-11-21T07:01:03;97939.16;;;7.10;100.00
20156;BME280;10238;49.556;10.956;2023-11-21T07:03:52;97942.66;;;7.10;100.00
20156;BME280;10238;49.556;10.956;2023-11-21T07:06:40;97942.50;;;7.12;100.00
20156;BME280;10238;49.556;10.956;2023-11-21T07:09:29;97951.09;;;7.14;100.00
20156;BME280;10238;49.556;10.956;2023-11-21T07:12:17;97958.75;;;7.17;100.00
20156;BME280;10238;49.556;10.956;2023-11-21T07:15:07;97952.50;;;7.18;100.00
20156;BME280;10238;49.556;10.956;2023-11-21T07:17:56;97964.31;;;7.23;100.00
20156;BME280;10238;49.556;10.956;2023-11-21T07:20:43;97969.44;;;7.25;100.00
20156;BME280;10238;49.556;10.956;2023-11-21T07:23:31;97969.59;;;7.23;100.00
20156;BME280;10238;49.556;10.956;2023-11-21T07:26:20;97972.09;;;7.25;100.00
20156;BME280;10238;49.556;10.956;2023-11-21T07:29:09;97979.44;;;7.31;100.00
20156;BME280;10238;49.556;10.956;2023-11-21T07:31:57;97978.19;;;7.35;100.00
20156;BME280;10238;49.556;10.956;2023-11-21T07:34:46;97975.25;;;7.38;100.00
20156;BME280;10238;49.556;10.956;2023-11-21T07:37:34;97975.94;;;7.40;100.00
20156;BME280;10238;49.556;10.956;2023-11-21T07:40:22;97972.03;;;7.44;100.00
20156;BME280;10238;49.556;10.956;2023-11-21T07:43:11;97973.41;;;7.48;100.00
20156;BME280;10238;49.556;10.956;2023-11-21T07:45:59;97980.22;;;7.50;100.00
20156;BME280;10238;49.556;10.956;2023-11-21T07:48:47;97980.06;;;7.52;100.00
20156;BME280;10238;49.556;10.956;2023-11-21T07:51:35;97979.25;;;7.51;100.00
20156;BME280;10238;49.556;10.956;2023-11-21T07:54:22;97984.25;;;7.54;100.00
20156;BME280;10238;49.556;10.956;2023-11-21T07:57:10;97985.75;;;7.57;100.00
20156;BME280;10238;49.556;10.956;2023-11-21T08:00:01;97990.06;;;7.58;100.00
20156;BME280;10238;49.556;10.956;2023-11-21T08:02:49;97993.41;;;7.60;100.00
20156;BME280;10238;49.556;10.956;2023-11-21T08:05:37;97995.06;;;7.61;100.00
20156;BME280;10238;49.556;10.956;2023-11-21T08:08:26;97989.47;;;7.64;100.00
20156;BME280;10238;49.556;10.956;2023-11-21T08:11:13;97993.50;;;7.68;100.00
20156;BME280;10238;49.556;10.956;2023-11-21T08:14:01;97998.22;;;7.74;100.00
20156;BME280;10238;49.556;10.956;2023-11-21T08:16:50;98002.25;;;7.78;100.00
20156;BME280;10238;49.556;10.956;2023-11-21T08:19:38;98002.09;;;7.79;100.00
20156;BME280;10238;49.556;10.956;2023-11-21T08:22:26;97996.63;;;7.81;100.00
20156;BME280;10238;49.556;10.956;2023-11-21T08:25:13;97998.34;;;7.82;100.00
20156;BME280;10238;49.556;10.956;2023-11-21T08:28:01;98003.63;;;7.82;100.00
20156;BME280;10238;49.556;10.956;2023-11-21T08:30:50;98005.97;;;7.85;100.00
20156;BME280;10238;49.556;10.956;2023-11-21T08:33:39;97997.59;;;7.89;100.00
20156;BME280;10238;49.556;10.956;2023-11-21T08:36:27;98000.03;;;8.00;100.00
20156;BME280;10238;49.556;10.956;2023-11-21T08:39:15;98003.75;;;8.07;100.00
20156;BME280;10238;49.556;10.956;2023-11-21T08:42:06;98007.94;;;8.10;100.00
20156;BME280;10238;49.556;10.956;2023-11-21T08:44:54;98010.75;;;8.08;100.00
20156;BME280;10238;49.556;10.956;2023-11-21T08:47:44;98018.91;;;8.15;100.00
20156;BME280;10238;49.556;10.956;2023-11-21T08:50:34;98014.44;;;8.15;100.00
20156;BME280;10238;49.556;10.956;2023-11-21T08:53:22;98018.31;;;8.21;100.00
20156;BME280;10238;49.556;10.956;2023-11-21T08:56:13;98019.25;;;8.29;100.00
20156;BME280;10238;49.556;10.956;2023-11-21T08:59:01;98023.97;;;8.35;100.00
20156;BME280;10238;49.556;10.956;2023-11-21T09:01:49;98031.19;;;8.43;100.00
20156;BME280;10238;49.556;10.956;2023-11-21T09:04:37;98031.72;;;8.46;100.00
20156;BME280;10238;49.556;10.956;2023-11-21T09:07:29;98033.75;;;8.52;100.00
20156;BME280;10238;49.556;10.956;2023-11-21T09:10:17;98035.94;;;8.57;100.00
20156;BME280;10238;49.556;10.956;2023-11-21T09:13:06;98034.41;;;8.64;100.00
20156;BME280;10238;49.556;10.956;2023-11-21T09:15:55;98045.44;;;8.77;100.00
20156;BME280;10238;49.556;10.956;2023-11-21T09:18:43;98047.72;;;8.90;100.00
20156;BME280;10238;49.556;10.956;2023-11-21T09:21:31;98046.66;;;9.00;100.00
20156;BME280;10238;49.556;10.956;2023-11-21T09:24:25;98056.50;;;9.08;100.00
20156;BME280;10238;49.556;10.956;2023-11-21T09:27:15;98049.06;;;9.11;100.00
20156;BME280;10238;49.556;10.956;2023-11-21T09:30:05;98058.00;;;9.10;100.00
20156;BME280;10238;49.556;10.956;2023-11-21T09:32:55;98054.34;;;9.11;100.00
20156;BME280;10238;49.556;10.956;2023-11-21T09:35:44;98057.41;;;9.16;100.00
20156;BME280;10238;49.556;10.956;2023-11-21T09:38:31;98054.28;;;9.21;100.00
20156;BME280;10238;49.556;10.956;2023-11-21T09:41:26;98060.09;;;9.24;100.00
20156;BME280;10238;49.556;10.956;2023-11-21T09:44:31;98059.19;;;9.33;100.00
20156;BME280;10238;49.556;10.956;2023-11-21T09:47:22;98047.94;;;9.39;100.00
20156;BME280;10238;49.556;10.956;2023-11-21T09:50:11;98051.28;;;9.41;100.00
20156;BME280;10238;49.556;10.956;2023-11-21T09:53:13;98051.81;;;9.45;100.00
20156;BME280;10238;49.556;10.956;2023-11-21T09:56:06;98055.38;;;9.53;100.00
20156;BME280;10238;49.556;10.956;2023-11-21T09:58:57;98047.75;;;9.58;100.00
20156;BME280;10238;49.556;10.956;2023-11-21T10:01:50;98051.91;;;9.61;100.00
20156;BME280;10238;49.556;10.956;2023-11-21T10:04:38;98049.78;;;9.64;100.00
20156;BME280;10238;49.556;10.956;2023-11-21T10:07:28;98044.00;;;9.69;100.00
20156;BME280;10238;49.556;10.956;2023-11-21T10:10:20;98045.88;;;9.76;100.00
20156;BME280;10238;49.556;10.956;2023-11-21T10:13:12;98047.44;;;9.87;100.00
20156;BME280;10238;49.556;10.956;2023-11-21T10:16:07;98045.97;;;9.92;100.00
20156;BME280;10238;49.556;10.956;2023-11-21T10:18:59;98051.16;;;10.02;100.00
20156;BME280;10238;49.556;10.956;2023-11-21T10:21:57;98050.72;;;10.06;100.00
20156;BME280;10238;49.556;10.956;2023-11-21T10:24:47;98047.22;;;10.06;100.00
20156;BME280;10238;49.556;10.956;2023-11-21T10:27:40;98050.72;;;10.06;100.00
20156;BME280;10238;49.556;10.956;2023-11-21T10:30:32;98056.41;;;10.11;100.00
20156;BME280;10238;49.556;10.956;2023-11-21T10:33:28;98049.59;;;10.17;100.00
20156;BME280;10238;49.556;10.956;2023-11-21T10:36:25;98052.09;;;10.18;100.00
20156;BME280;10238;49.556;10.956;2023-11-21T10:39:16;98048.44;;;10.19;100.00
20156;BME280;10238;49.556;10.956;2023-11-21T10:42:08;98051.78;;;10.21;100.00
20156;BME280;10238;49.556;10.956;2023-11-21T10:44:56;98052.09;;;10.18;100.00
20156;BME280;10238;49.556;10.956;2023-11-21T10:47:44;98054.06;;;10.16;100.00
20156;BME280;10238;49.556;10.956;2023-11-21T10:50:55;98049.59;;;10.17;100.00
20156;BME280;10238;49.556;10.956;2023-11-21T10:53:43;98054.41;;;10.13;100.00
20156;BME280;10238;49.556;10.956;2023-11-21T10:56:58;98051.25;;;10.18;100.00
20156;BME280;10238;49.556;10.956;2023-11-21T10:59:48;98050.47;;;10.25;100.00
20156;BME280;10238;49.556;10.956;2023-11-21T11:02:37;98051.66;;;10.31;100.00
20156;BME280;10238;49.556;10.956;2023-11-21T11:05:27;98052.84;;;10.36;100.00
20156;BME280;10238;49.556;10.956;2023-11-21T11:08:20;98058.16;;;10.36;100.00
20156;BME280;10238;49.556;10.956;2023-11-21T11:11:14;98061.47;;;10.30;100.00
20156;BME280;10238;49.556;10.956;2023-11-21T11:14:01;98054.16;;;10.32;100.00
20156;BME280;10238;49.556;10.956;2023-11-21T11:16:49;98049.03;;;10.39;100.00
20156;BME280;10238;49.556;10.956;2023-11-21T11:19:37;98052.53;;;10.39;100.00
20156;BME280;10238;49.556;10.956;2023-11-21T11:22:37;98049.56;;;10.42;100.00
20156;BME280;10238;49.556;10.956;2023-11-21T11:25:46;98053.06;;;10.51;100.00
20156;BME280;10238;49.556;10.956;2023-11-21T11:28:50;98038.97;;;10.58;100.00
20156;BME280;10238;49.556;10.956;2023-11-21T11:31:52;98044.97;;;10.68;100.00
20156;BME280;10238;49.556;10.956;2023-11-21T11:34:50;98044.81;;;10.78;100.00
20156;BME280;10238;49.556;10.956;2023-11-21T11:37:41;98045.00;;;10.84;100.00
20156;BME280;10238;49.556;10.956;2023-11-21T11:40:40;98050.31;;;10.84;100.00
20156;BME280;10238;49.556;10.956;2023-11-21T11:43:29;98043.31;;;10.83;100.00
20156;BME280;10238;49.556;10.956;2023-11-21T11:46:18;98048.00;;;10.81;100.00
20156;BME280;10238;49.556;10.956;2023-11-21T11:49:08;98052.13;;;10.76;100.00
20156;BME280;10238;49.556;10.956;2023-11-21T11:52:33;98051.13;;;10.77;100.00
20156;BME280;10238;49.556;10.956;2023-11-21T11:55:23;98060.75;;;10.78;100.00
20156;BME280;10238;49.556;10.956;2023-11-21T11:58:12;98058.47;;;10.83;100.00
20156;BME280;10238;49.556;10.956;2023-11-21T12:01:07;98065.94;;;10.87;100.00
20156;BME280;10238;49.556;10.956;2023-11-21T12:04:24;98064.25;;;10.86;100.00
20156;BME280;10238;49.556;10.956;2023-11-21T12:07:18;98061.59;;;10.86;100.00
20156;BME280;10238;49.556;10.956;2023-11-21T12:10:13;98062.97;;;10.90;100.00
20156;BME280;10238;49.556;10.956;2023-11-21T12:13:03;98069.94;;;10.91;100.00
20156;BME280;10238;49.556;10.956;2023-11-21T12:15:55;98070.94;;;10.90;100.00
20156;BME280;10238;49.556;10.956;2023-11-21T12:18:43;98070.28;;;10.97;100.00
20156;BME280;10238;49.556;10.956;2023-11-21T12:21:31;98068.63;;;11.04;100.00
20156;BME280;10238;49.556;10.956;2023-11-21T12:24:20;98072.25;;;11.02;100.00
20156;BME280;10238;49.556;10.956;2023-11-21T12:27:09;98066.28;;;11.01;100.00
20156;BME280;10238;49.556;10.956;2023-11-21T12:29:57;98071.28;;;11.04;100.00
20156;BME280;10238;49.556;10.956;2023-11-21T12:32:49;98065.97;;;11.04;100.00
20156;BME280;10238;49.556;10.956;2023-11-21T12:35:38;98067.09;;;11.01;100.00
20156;BME280;10238;49.556;10.956;2023-11-21T12:38:34;98068.97;;;11.01;100.00
20156;BME280;10238;49.556;10.956;2023-11-21T12:41:22;98065.97;;;11.04;100.00
20156;BME280;10238;49.556;10.956;2023-11-21T12:44:13;98067.97;;;11.10;100.00
20156;BME280;10238;49.556;10.956;2023-11-21T12:47:02;98078.94;;;11.15;100.00
20156;BME280;10238;49.556;10.956;2023-11-21T12:49:51;98080.25;;;11.19;100.00
20156;BME280;10238;49.556;10.956;2023-11-21T12:52:41;98084.59;;;11.20;100.00
20156;BME280;10238;49.556;10.956;2023-11-21T12:55:31;98084.78;;;11.18;100.00
20156;BME280;10238;49.556;10.956;2023-11-21T12:58:21;98081.44;;;11.16;100.00
20156;BME280;10238;49.556;10.956;2023-11-21T13:01:13;98090.75;;;11.12;100.00
20156;BME280;10238;49.556;10.956;2023-11-21T13:04:08;98087.91;;;11.14;100.00
20156;BME280;10238;49.556;10.956;2023-11-21T13:07:04;98092.56;;;11.12;100.00
20156;BME280;10238;49.556;10.956;2023-11-21T13:09:59;98086.91;;;11.07;100.00
20156;BME280;10238;49.556;10.956;2023-11-21T13:12:53;98092.06;;;11.00;100.00
20156;BME280;10238;49.556;10.956;2023-11-21T13:15:49;98097.53;;;10.90;100.00
20156;BME280;10238;49.556;10.956;2023-11-21T13:18:37;98094.84;;;10.82;100.00
20156;BME280;10238;49.556;10.956;2023-11-21T13:21:26;98096.16;;;10.78;100.00
20156;BME280;10238;49.556;10.956;2023-11-21T13:24:15;98094.84;;;10.82;100.00
20156;BME280;10238;49.556;10.956;2023-11-21T13:27:04;98097.53;;;10.90;100.00
20156;BME280;10238;49.556;10.956;2023-11-21T13:29:53;98094.22;;;10.97;100.00
20156;BME280;10238;49.556;10.956;2023-11-21T13:32:41;98097.38;;;11.00;100.00
20156;BME280;10238;49.556;10.956;2023-11-21T13:35:29;98096.19;;;11.02;100.00
20156;BME280;10238;49.556;10.956;2023-11-21T13:38:19;98090.22;;;11.09;100.00
20156;BME280;10238;49.556;10.956;2023-11-21T13:41:11;98091.22;;;11.16;100.00
20156;BME280;10238;49.556;10.956;2023-11-21T13:44:01;98090.59;;;11.30;100.00
20156;BME280;10238;49.556;10.956;2023-11-21T13:47:02;98085.44;;;11.44;100.00
20156;BME280;10238;49.556;10.956;2023-11-21T13:49:52;98079.28;;;11.60;100.00
20156;BME280;10238;49.556;10.956;2023-11-21T13:52:40;98088.31;;;11.67;100.00
20156;BME280;10238;49.556;10.956;2023-11-21T13:55:27;98082.97;;;11.67;100.00
20156;BME280;10238;49.556;10.956;2023-11-21T13:58:17;98091.09;;;11.57;100.00
20156;BME280;10238;49.556;10.956;2023-11-21T14:01:08;98092.59;;;11.52;100.00
20156;BME280;10238;49.556;10.956;2023-11-21T14:04:08;98087.25;;;11.44;100.00
20156;BME280;10238;49.556;10.956;2023-11-21T14:07:05;98098.25;;;11.33;100.00
20156;BME280;10238;49.556;10.956;2023-11-21T14:10:09;98097.59;;;11.23;100.00
20156;BME280;10238;49.556;10.956;2023-11-21T14:13:00;98103.88;;;11.14;100.00
20156;BME280;10238;49.556;10.956;2023-11-21T14:15:50;98104.53;;;11.08;100.00
20156;BME280;10238;49.556;10.956;2023-11-21T14:18:45;98100.72;;;11.02;100.00
20156;BME280;10238;49.556;10.956;2023-11-21T14:21:42;98098.53;;;10.98;100.00
20156;BME280;10238;49.556;10.956;2023-11-21T14:24:31;98108.50;;;10.95;100.00
20156;BME280;10238;49.556;10.956;2023-11-21T14:27:19;98110.50;;;10.93;100.00
20156;BME280;10238;49.556;10.956;2023-11-21T14:30:08;98103.00;;;10.89;100.00
20156;BME280;10238;49.556;10.956;2023-11-21T14:33:00;98106.63;;;10.80;100.00
20156;BME280;10238;49.556;10.956;2023-11-21T14:35:48;98119.91;;;10.72;100.00
20156;BME280;10238;49.556;10.956;2023-11-21T14:38:37;98121.69;;;10.63;100.00
20156;BME280;10238;49.556;10.956;2023-11-21T14:41:25;98119.84;;;10.56;100.00
20156;BME280;10238;49.556;10.956;2023-11-21T14:44:14;98121.63;;;10.47;100.00
20156;BME280;10238;49.556;10.956;2023-11-21T14:47:02;98127.59;;;10.41;100.00